createdAt,value
2022-09-21T00:01:16.196Z,8.63
2022-09-21T00:03:44.097Z,8.57
2022-09-21T00:06:14.082Z,7.50
2022-09-21T00:08:40.910Z,8.18
2022-09-21T00:11:08.667Z,7.85
2022-09-21T00:13:37.734Z,7.68
2022-09-21T00:16:08.902Z,7.35
2022-09-21T00:18:36.295Z,7.10
2022-09-21T00:21:10.875Z,9.27
2022-09-21T00:23:37.538Z,7.65
2022-09-21T00:26:10.802Z,7.35
2022-09-21T00:28:38.128Z,7.10
2022-09-21T00:31:07.828Z,7.93
2022-09-21T00:33:34.899Z,7.45
2022-09-21T00:36:10.343Z,7.45
2022-09-21T00:38:38.291Z,8.35
2022-09-21T00:41:06.759Z,7.50
2022-09-21T00:43:40.150Z,7.82
2022-09-21T00:46:32.547Z,7.90
2022-09-21T00:48:59.158Z,7.57
2022-09-21T00:51:26.119Z,7.38
2022-09-21T00:53:56.013Z,7.80
2022-09-21T00:56:23.106Z,8.63
2022-09-21T00:58:52.328Z,9.05
2022-09-21T01:01:19.703Z,8.40
2022-09-21T01:03:47.263Z,7.25
2022-09-21T01:06:16.834Z,7.32
2022-09-21T01:08:46.130Z,7.68
2022-09-21T01:11:15.406Z,9.32
2022-09-21T01:14:11.231Z,7.88
2022-09-21T01:17:15.298Z,8.00
2022-09-21T01:20:20.074Z,7.38
2022-09-21T01:23:04.490Z,7.55
2022-09-21T01:25:48.960Z,6.90
2022-09-21T01:28:41.759Z,6.85
2022-09-21T01:31:15.294Z,6.82
2022-09-21T01:33:52.467Z,8.48
2022-09-21T01:36:24.990Z,7.57
2022-09-21T01:38:58.403Z,8.40
2022-09-21T01:41:28.731Z,7.18
2022-09-21T01:44:01.447Z,8.40
2022-09-21T01:46:32.214Z,8.27
2022-09-21T01:49:06.653Z,7.22
2022-09-21T01:51:34.607Z,7.88
2022-09-21T01:54:20.210Z,7.30
2022-09-21T01:56:52.931Z,7.00
2022-09-21T01:59:30.399Z,9.40
2022-09-21T02:02:08.852Z,7.55
2022-09-21T02:04:35.661Z,7.05
2022-09-21T02:07:02.574Z,7.28
2022-09-21T02:09:29.599Z,7.40
2022-09-21T02:11:58.115Z,7.20
2022-09-21T02:14:25.601Z,7.57
2022-09-21T02:17:19.095Z,8.57
2022-09-21T02:19:54.546Z,8.00
2022-09-21T02:22:54.829Z,7.35
2022-09-21T02:25:34.171Z,7.20
2022-09-21T02:28:25.070Z,7.65
2022-09-21T02:31:24.101Z,7.13
2022-09-21T02:33:59.315Z,7.65
2022-09-21T02:36:39.048Z,7.85
2022-09-21T02:39:17.738Z,8.40
2022-09-21T02:42:08.482Z,7.13
2022-09-21T02:44:40.886Z,7.43
2022-09-21T02:47:28.756Z,8.68
2022-09-21T02:50:01.653Z,11.98
2022-09-21T02:52:30.674Z,7.75
2022-09-21T02:54:57.344Z,6.65
2022-09-21T02:57:24.360Z,7.80
2022-09-21T02:59:51.565Z,7.72
2022-09-21T03:02:18.230Z,8.95
2022-09-21T03:04:47.612Z,6.78
2022-09-21T03:07:16.180Z,7.45
2022-09-21T03:09:42.836Z,7.32
2022-09-21T03:12:09.639Z,7.70
2022-09-21T03:14:36.157Z,7.40
2022-09-21T03:17:02.726Z,7.47
2022-09-21T03:19:29.300Z,7.72
2022-09-21T03:21:55.812Z,7.53
2022-09-21T03:24:51.455Z,7.72
2022-09-21T03:27:20.791Z,7.38
2022-09-21T03:29:47.745Z,7.07
2022-09-21T03:32:14.412Z,7.32
2022-09-21T03:34:41.636Z,7.10
2022-09-21T03:37:09.633Z,7.10
2022-09-21T03:39:36.658Z,6.88
2022-09-21T03:42:04.535Z,7.40
2022-09-21T03:44:31.043Z,8.00
2022-09-21T03:46:58.161Z,7.28
2022-09-21T03:49:25.070Z,7.15
2022-09-21T03:51:51.579Z,6.65
2022-09-21T03:54:18.128Z,7.60
2022-09-21T03:56:44.919Z,7.53
2022-09-21T03:59:14.085Z,7.10
2022-09-21T04:01:41.373Z,6.88
2022-09-21T04:04:08.036Z,6.80
2022-09-21T04:06:34.932Z,7.15
2022-09-21T04:09:02.989Z,7.00
2022-09-21T04:11:30.043Z,6.90
2022-09-21T04:13:57.269Z,7.20
2022-09-21T04:16:25.368Z,6.82
2022-09-21T04:18:51.870Z,6.57
2022-09-21T04:21:19.419Z,6.28
2022-09-21T04:23:46.044Z,6.43
2022-09-21T04:26:30.551Z,6.85
2022-09-21T04:28:57.239Z,7.35
2022-09-21T04:31:25.267Z,6.90
2022-09-21T04:33:53.268Z,6.78
2022-09-21T04:36:21.845Z,6.63
2022-09-21T04:38:48.652Z,7.50
2022-09-21T04:41:16.301Z,7.28
2022-09-21T04:43:44.815Z,6.70
2022-09-21T04:46:17.019Z,6.68
2022-09-21T04:48:43.817Z,6.70
2022-09-21T04:51:11.570Z,6.85
2022-09-21T04:53:39.674Z,7.18
2022-09-21T04:56:07.310Z,7.20
2022-09-21T04:58:34.034Z,7.88
2022-09-21T05:01:01.887Z,7.03
2022-09-21T05:03:28.423Z,7.10
2022-09-21T05:05:56.558Z,8.02
2022-09-21T05:08:43.689Z,7.80
2022-09-21T05:11:14.454Z,7.35
2022-09-21T05:13:41.328Z,7.72
2022-09-21T05:16:08.303Z,7.18
2022-09-21T05:18:35.422Z,7.10
2022-09-21T05:21:03.716Z,7.00
2022-09-21T05:23:31.406Z,7.45
2022-09-21T05:25:59.563Z,7.15
2022-09-21T05:28:26.985Z,6.90
2022-09-21T05:31:16.580Z,7.13
2022-09-21T05:33:52.171Z,6.68
2022-09-21T05:36:31.978Z,7.80
2022-09-21T05:38:58.697Z,7.28
2022-09-21T05:41:25.526Z,6.80
2022-09-21T05:43:52.147Z,7.53
2022-09-21T05:46:42.380Z,7.32
2022-09-21T05:49:35.839Z,8.40
2022-09-21T05:52:07.619Z,8.48
2022-09-21T05:54:55.743Z,7.50
2022-09-21T05:57:30.775Z,7.80
2022-09-21T06:00:18.140Z,10.98
2022-09-21T06:03:04.088Z,8.60
2022-09-21T06:05:30.553Z,8.20
2022-09-21T06:07:57.030Z,8.60
2022-09-21T06:10:25.048Z,8.80
2022-09-21T06:12:51.514Z,9.10
2022-09-21T06:15:18.106Z,9.07
2022-09-21T06:17:44.568Z,10.27
2022-09-21T06:20:11.083Z,9.50
2022-09-21T06:22:37.596Z,9.40
2022-09-21T06:25:04.325Z,9.57
2022-09-21T06:27:30.880Z,10.13
2022-09-21T06:29:57.412Z,8.70
2022-09-21T06:32:24.605Z,9.80
2022-09-21T06:34:51.079Z,9.50
2022-09-21T06:37:17.663Z,10.23
2022-09-21T06:39:44.242Z,11.82
2022-09-21T06:42:10.747Z,10.65
2022-09-21T06:44:37.210Z,15.00
2022-09-21T06:47:03.820Z,14.77
2022-09-21T06:49:30.348Z,11.70
2022-09-21T06:51:56.872Z,11.40
2022-09-21T06:54:24.572Z,10.43
2022-09-21T06:56:51.110Z,10.77
2022-09-21T06:59:17.593Z,12.32
2022-09-21T07:01:44.338Z,11.90
2022-09-21T07:04:10.964Z,21.40
2022-09-21T07:06:37.452Z,28.52
2022-09-21T07:11:50.750Z,17.52
2022-09-21T07:14:17.218Z,12.77
2022-09-21T07:16:43.782Z,13.75
2022-09-21T07:19:11.535Z,10.30
2022-09-21T07:21:38.556Z,12.82
2022-09-21T07:24:09.487Z,14.55
2022-09-21T07:26:38.390Z,12.00
2022-09-21T07:29:05.131Z,11.48
2022-09-21T07:31:31.885Z,11.80
2022-09-21T07:33:59.062Z,11.32
2022-09-21T07:36:25.764Z,10.15
2022-09-21T07:38:53.923Z,9.68
2022-09-21T07:41:21.203Z,8.60
2022-09-21T07:43:47.671Z,11.70
2022-09-21T07:46:15.249Z,12.40
2022-09-21T07:48:42.407Z,10.88
2022-09-21T07:51:11.976Z,8.80
2022-09-21T07:53:41.525Z,9.82
2022-09-21T07:56:14.409Z,9.90
2022-09-21T07:58:59.675Z,8.00
2022-09-21T08:01:27.425Z,7.75
2022-09-21T08:03:55.882Z,8.55
2022-09-21T08:06:24.075Z,8.88
2022-09-21T08:08:56.617Z,7.40
2022-09-21T08:11:25.819Z,6.00
2022-09-21T08:13:53.634Z,6.85
2022-09-21T08:16:20.537Z,5.70
2022-09-21T08:18:47.068Z,5.65
2022-09-21T08:21:14.251Z,10.10
2022-09-21T08:23:42.539Z,5.35
2022-09-21T08:26:17.365Z,6.15
2022-09-21T08:28:44.414Z,6.18
2022-09-21T08:31:10.991Z,7.60
2022-09-21T08:33:37.518Z,10.55
2022-09-21T08:36:04.692Z,9.10
2022-09-21T08:38:36.672Z,9.32
2022-09-21T08:41:31.293Z,8.38
2022-09-21T08:44:04.229Z,8.63
2022-09-21T08:46:33.706Z,9.07
2022-09-21T08:49:06.921Z,7.13
2022-09-21T08:51:37.882Z,6.13
2022-09-21T08:54:18.271Z,11.57
2022-09-21T08:57:03.897Z,6.55
2022-09-21T08:59:31.361Z,6.30
2022-09-21T09:02:10.486Z,6.43
2022-09-21T09:04:49.796Z,7.20
2022-09-21T09:07:54.303Z,15.50
2022-09-21T09:10:47.585Z,9.15
2022-09-21T09:13:28.156Z,8.35
2022-09-21T09:16:20.812Z,7.35
2022-09-21T09:18:57.505Z,7.05
2022-09-21T09:21:39.084Z,6.57
2022-09-21T09:24:27.002Z,5.53
2022-09-21T09:27:17.581Z,6.53
2022-09-21T09:30:03.577Z,8.60
2022-09-21T09:32:46.896Z,10.95
2022-09-21T09:35:28.429Z,8.13
2022-09-21T09:37:58.541Z,9.18
2022-09-21T09:41:02.466Z,7.22
2022-09-21T09:43:39.651Z,16.50
2022-09-21T09:46:15.107Z,7.35
2022-09-21T09:48:55.035Z,13.77
2022-09-21T09:51:21.608Z,8.63
2022-09-21T09:53:48.212Z,5.97
2022-09-21T09:56:14.824Z,6.95
2022-09-21T09:58:50.667Z,5.93
2022-09-21T10:01:42.621Z,5.65
2022-09-21T10:04:17.985Z,8.35
2022-09-21T10:06:46.770Z,7.05
2022-09-21T10:09:36.645Z,5.40
2022-09-21T10:12:24.714Z,5.80
2022-09-21T10:15:00.755Z,8.48
2022-09-21T10:17:27.835Z,7.43
2022-09-21T10:20:01.526Z,5.05
2022-09-21T10:22:29.081Z,6.57
2022-09-21T10:24:58.966Z,6.68
2022-09-21T10:27:35.600Z,9.00
2022-09-21T10:30:02.237Z,8.40
2022-09-21T10:32:29.731Z,8.20
2022-09-21T10:35:15.662Z,7.40
2022-09-21T10:37:44.900Z,6.57
2022-09-21T10:40:17.241Z,6.25
2022-09-21T10:42:44.059Z,8.07
2022-09-21T10:45:17.663Z,5.78
2022-09-21T10:47:47.401Z,5.10
2022-09-21T10:50:36.688Z,5.43
2022-09-21T10:53:08.975Z,4.70
2022-09-21T10:56:15.989Z,5.07
2022-09-21T10:59:11.640Z,4.70
2022-09-21T11:01:44.959Z,5.30
2022-09-21T11:04:19.412Z,5.00
2022-09-21T11:06:52.213Z,4.20
2022-09-21T11:09:25.304Z,4.03
2022-09-21T11:12:02.403Z,6.25
2022-09-21T11:14:45.478Z,4.47
2022-09-21T11:17:26.335Z,5.55
2022-09-21T11:20:08.659Z,5.68
2022-09-21T11:23:10.864Z,5.30
2022-09-21T11:25:47.256Z,5.35
2022-09-21T11:28:40.772Z,6.15
2022-09-21T11:31:14.583Z,4.40
2022-09-21T11:34:15.600Z,4.95
2022-09-21T11:37:10.086Z,4.78
2022-09-21T11:40:25.101Z,4.70
2022-09-21T11:43:10.255Z,4.68
2022-09-21T11:45:50.350Z,6.53
2022-09-21T11:48:37.978Z,5.50
2022-09-21T11:51:19.197Z,5.05
2022-09-21T11:53:46.625Z,4.88
2022-09-21T11:56:24.961Z,16.20
2022-09-21T11:59:06.798Z,5.95
2022-09-21T12:01:36.609Z,12.52
2022-09-21T12:04:42.257Z,9.52
2022-09-21T12:07:20.758Z,17.10
2022-09-21T12:10:11.795Z,5.32
2022-09-21T12:12:43.768Z,4.60
2022-09-21T12:15:19.683Z,4.70
2022-09-21T12:18:07.674Z,5.30
2022-09-21T12:21:04.895Z,5.03
2022-09-21T12:23:49.174Z,5.03
2022-09-21T12:26:20.896Z,4.63
2022-09-21T12:28:56.271Z,4.55
2022-09-21T12:31:31.570Z,4.82
2022-09-21T12:34:03.531Z,4.60
2022-09-21T12:36:47.560Z,4.72
2022-09-21T12:39:49.684Z,4.43
2022-09-21T12:42:22.271Z,5.85
2022-09-21T12:44:58.240Z,4.70
2022-09-21T12:47:45.588Z,4.65
2022-09-21T12:50:26.051Z,5.00
2022-09-21T12:52:54.694Z,5.65
2022-09-21T12:55:32.102Z,6.90
2022-09-21T12:58:15.257Z,4.55
2022-09-21T13:01:12.829Z,4.63
2022-09-21T13:03:53.202Z,5.25
2022-09-21T13:06:41.013Z,4.97
2022-09-21T13:09:12.608Z,5.22
2022-09-21T13:11:54.287Z,4.55
2022-09-21T13:14:22.632Z,4.90
2022-09-21T13:17:00.388Z,4.95
2022-09-21T13:19:31.018Z,4.88
2022-09-21T13:22:19.768Z,6.07
2022-09-21T13:25:02.899Z,4.72
2022-09-21T13:28:19.582Z,4.60
2022-09-21T13:31:18.485Z,4.93
2022-09-21T13:34:28.417Z,5.30
2022-09-21T13:37:19.175Z,5.38
2022-09-21T13:39:51.162Z,5.38
2022-09-21T13:42:32.791Z,4.40
2022-09-21T13:45:15.448Z,5.28
2022-09-21T13:47:47.428Z,4.72
2022-09-21T13:50:20.658Z,5.40
2022-09-21T13:52:52.218Z,7.45
2022-09-21T13:57:58.825Z,4.60
2022-09-21T14:00:32.408Z,4.68
2022-09-21T14:03:04.024Z,4.43
2022-09-21T14:05:42.543Z,4.85
2022-09-21T14:08:14.729Z,8.18
2022-09-21T14:10:57.295Z,4.82
2022-09-21T14:13:32.687Z,4.78
2022-09-21T14:16:37.252Z,6.13
2022-09-21T14:19:26.759Z,5.85
2022-09-21T14:22:08.171Z,5.97
2022-09-21T14:24:49.893Z,4.90
2022-09-21T14:27:32.136Z,4.70
2022-09-21T14:30:19.919Z,4.70
2022-09-21T14:32:49.192Z,4.75
2022-09-21T14:35:22.820Z,5.72
2022-09-21T14:37:56.198Z,4.90
2022-09-21T14:40:25.362Z,5.60
2022-09-21T14:42:58.182Z,5.57
2022-09-21T14:45:45.947Z,4.88
2022-09-21T14:48:30.369Z,5.00
2022-09-21T14:51:19.511Z,6.07
2022-09-21T14:54:08.568Z,4.80
2022-09-21T14:57:19.033Z,6.07
2022-09-21T14:59:53.299Z,5.30
2022-09-21T15:02:29.262Z,6.68
2022-09-21T15:05:12.228Z,4.82
2022-09-21T15:08:01.187Z,5.03
2022-09-21T15:10:56.812Z,5.38
2022-09-21T15:13:38.501Z,5.30
2022-09-21T15:16:17.272Z,5.32
2022-09-21T15:18:46.960Z,4.95
2022-09-21T15:21:32.921Z,4.63
2022-09-21T15:24:10.276Z,5.70
2022-09-21T15:26:40.280Z,5.50
2022-09-21T15:29:10.713Z,6.50
2022-09-21T15:31:41.956Z,6.03
2022-09-21T15:34:11.152Z,5.68
2022-09-21T15:36:40.448Z,5.90
2022-09-21T15:39:07.483Z,5.50
2022-09-21T15:41:44.687Z,6.40
2022-09-21T15:44:23.824Z,5.97
2022-09-21T15:46:57.759Z,6.00
2022-09-21T15:49:24.929Z,5.93
2022-09-21T15:51:58.582Z,5.38
2022-09-21T15:54:37.884Z,6.13
2022-09-21T15:57:24.009Z,6.03
2022-09-21T15:59:51.083Z,5.80
2022-09-21T16:02:23.484Z,5.70
2022-09-21T16:04:52.485Z,6.28
2022-09-21T16:08:03.642Z,6.65
2022-09-21T16:10:30.098Z,7.22
2022-09-21T16:13:33.778Z,7.00
2022-09-21T16:16:06.274Z,7.35
2022-09-21T16:18:46.670Z,6.90
2022-09-21T16:21:23.629Z,6.78
2022-09-21T16:23:54.652Z,7.45
2022-09-21T16:26:28.642Z,7.70
2022-09-21T16:29:23.901Z,7.35
2022-09-21T16:31:51.382Z,7.53
2022-09-21T16:34:36.721Z,6.75
2022-09-21T16:37:28.629Z,6.90
2022-09-21T16:39:59.628Z,7.35
2022-09-21T16:42:32.732Z,6.53
2022-09-21T16:45:00.546Z,7.35
2022-09-21T16:47:27.957Z,7.00
2022-09-21T16:50:02.431Z,7.07
2022-09-21T16:52:30.109Z,7.40
2022-09-21T16:54:58.569Z,7.53
2022-09-21T16:57:26.074Z,7.65
2022-09-21T16:59:52.861Z,7.40
2022-09-21T17:02:19.379Z,7.18
2022-09-21T17:04:45.889Z,7.78
2022-09-21T17:07:13.933Z,7.53
2022-09-21T17:09:44.328Z,8.00
2022-09-21T17:12:13.414Z,7.85
2022-09-21T17:14:45.737Z,7.88
2022-09-21T17:17:19.621Z,8.38
2022-09-21T17:19:49.617Z,8.30
2022-09-21T17:22:19.504Z,8.00
2022-09-21T17:24:51.334Z,8.75
2022-09-21T17:27:22.483Z,7.68
2022-09-21T17:29:50.015Z,7.25
2022-09-21T17:32:22.478Z,7.22
2022-09-21T17:34:58.674Z,6.70
2022-09-21T17:37:25.318Z,6.82
2022-09-21T17:39:53.483Z,6.53
2022-09-21T17:42:24.991Z,8.10
2022-09-21T17:45:13.095Z,6.30
2022-09-21T17:47:40.807Z,6.43
2022-09-21T17:50:13.045Z,6.55
2022-09-21T17:53:02.222Z,6.55
2022-09-21T17:55:29.358Z,6.70
2022-09-21T17:58:14.192Z,6.85
2022-09-21T18:01:01.878Z,6.72
2022-09-21T18:03:30.514Z,6.97
2022-09-21T18:06:00.467Z,7.10
2022-09-21T18:08:33.144Z,6.68
2022-09-21T18:11:18.439Z,7.35
2022-09-21T18:13:57.306Z,7.53
2022-09-21T18:16:30.980Z,7.05
2022-09-21T18:19:05.652Z,6.78
2022-09-21T18:21:39.509Z,7.40
2022-09-21T18:24:18.946Z,7.28
2022-09-21T18:26:45.703Z,7.22
2022-09-21T18:29:38.846Z,7.30
2022-09-21T18:32:40.981Z,9.32
2022-09-21T18:35:24.454Z,7.55
2022-09-21T18:38:34.357Z,7.80
2022-09-21T18:41:21.984Z,8.35
2022-09-21T18:44:04.176Z,8.25
2022-09-21T18:46:39.670Z,8.73
2022-09-21T18:49:50.411Z,9.07
2022-09-21T18:52:45.967Z,8.95
2022-09-21T18:55:28.250Z,9.30
2022-09-21T18:57:56.607Z,8.75
2022-09-21T19:00:30.911Z,9.30
2022-09-21T19:03:16.525Z,8.80
2022-09-21T19:06:09.466Z,9.40
2022-09-21T19:09:11.316Z,8.93
2022-09-21T19:11:56.931Z,8.73
2022-09-21T19:14:38.380Z,10.05
2022-09-21T19:17:20.448Z,10.30
2022-09-21T19:19:53.803Z,10.02
2022-09-21T19:22:37.215Z,11.50
2022-09-21T19:25:31.060Z,10.57
2022-09-21T19:28:10.065Z,10.95
2022-09-21T19:30:38.670Z,10.75
2022-09-21T19:33:48.829Z,10.77
2022-09-21T19:36:14.112Z,10.90
2022-09-21T19:38:40.795Z,11.10
2022-09-21T19:41:35.363Z,11.80
2022-09-21T19:44:16.332Z,12.10
2022-09-21T19:46:58.474Z,12.40
2022-09-21T19:49:35.883Z,12.40
2022-09-21T19:52:05.453Z,13.00
2022-09-21T19:54:51.075Z,12.98
2022-09-21T19:57:38.702Z,13.43
2022-09-21T20:00:08.333Z,13.75
2022-09-21T20:03:07.361Z,13.40
2022-09-21T20:06:05.844Z,13.95
2022-09-21T20:08:41.839Z,15.00
2022-09-21T20:11:17.243Z,14.80
2022-09-21T20:13:46.566Z,14.43
2022-09-21T20:16:33.015Z,14.45
2022-09-21T20:19:03.340Z,14.25
2022-09-21T20:21:42.242Z,14.68
2022-09-21T20:24:19.705Z,15.25
2022-09-21T20:26:50.811Z,15.90
2022-09-21T20:29:18.395Z,14.48
2022-09-21T20:31:47.262Z,15.18
2022-09-21T20:34:14.015Z,15.55
2022-09-21T20:36:40.497Z,16.08
2022-09-21T20:39:07.059Z,15.88
2022-09-21T20:41:33.547Z,15.85
2022-09-21T20:44:01.672Z,15.75
2022-09-21T20:46:28.206Z,16.30
2022-09-21T20:49:00.125Z,15.88
2022-09-21T20:51:27.616Z,16.58
2022-09-21T20:53:54.097Z,16.75
2022-09-21T20:56:20.564Z,16.75
2022-09-21T20:58:47.050Z,16.52
2022-09-21T21:01:13.574Z,16.52
2022-09-21T21:03:40.111Z,16.98
2022-09-21T21:06:08.423Z,16.67
2022-09-21T21:08:34.927Z,16.88
2022-09-21T21:11:01.491Z,16.92
2022-09-21T21:13:31.120Z,16.77
2022-09-21T21:16:00.083Z,16.75
2022-09-21T21:18:27.450Z,16.77
2022-09-21T21:20:53.940Z,16.75
2022-09-21T21:23:20.498Z,17.38
2022-09-21T21:25:47.913Z,17.85
2022-09-21T21:28:14.506Z,17.52
2022-09-21T21:30:40.991Z,18.10
2022-09-21T21:33:07.494Z,17.13
2022-09-21T21:35:33.990Z,18.40
2022-09-21T21:38:00.591Z,18.55
2022-09-21T21:40:27.233Z,18.98
2022-09-21T21:42:55.304Z,18.23
2022-09-21T21:45:21.943Z,19.92
2022-09-21T21:47:48.424Z,19.48
2022-09-21T21:50:14.973Z,20.80
2022-09-21T21:52:41.513Z,20.25
2022-09-21T21:55:08.595Z,19.63
2022-09-21T21:57:35.087Z,21.00
2022-09-21T22:00:01.797Z,20.33
2022-09-21T22:02:32.026Z,20.88
2022-09-21T22:04:59.002Z,20.90
2022-09-21T22:07:25.507Z,20.95
2022-09-21T22:09:51.993Z,21.25
2022-09-21T22:12:18.502Z,22.10
2022-09-21T22:14:46.293Z,21.02
2022-09-21T22:17:12.914Z,21.77
2022-09-21T22:19:39.402Z,20.88
2022-09-21T22:22:05.913Z,24.10
2022-09-21T22:24:32.399Z,24.15
2022-09-21T22:26:58.921Z,24.38
2022-09-21T22:29:25.387Z,25.98
2022-09-21T22:31:51.948Z,24.42
2022-09-21T22:34:20.149Z,26.13
2022-09-21T22:36:46.697Z,27.20
2022-09-21T22:39:13.317Z,26.45
2022-09-21T22:41:41.653Z,25.13
2022-09-21T22:44:09.975Z,24.73
2022-09-21T22:46:36.675Z,23.58
2022-09-21T22:49:03.674Z,22.38
2022-09-21T22:51:30.703Z,22.58
2022-09-21T22:53:57.939Z,22.00
2022-09-21T22:56:26.904Z,22.58
2022-09-21T22:58:55.886Z,21.45
2022-09-21T23:01:28.499Z,22.10
2022-09-21T23:03:57.709Z,23.30
2022-09-21T23:06:26.542Z,22.00
2022-09-21T23:08:54.662Z,22.25
2022-09-21T23:11:27.083Z,21.88
2022-09-21T23:13:55.371Z,20.75
2022-09-21T23:16:23.334Z,22.17
2022-09-21T23:18:50.417Z,21.73
2022-09-21T23:21:20.007Z,23.52
2022-09-21T23:23:46.563Z,23.70
2022-09-21T23:26:17.999Z,22.63
2022-09-21T23:28:50.743Z,23.52
2022-09-21T23:31:17.723Z,23.67
2022-09-21T23:33:47.246Z,23.75
2022-09-21T23:36:16.326Z,24.08
2022-09-21T23:38:43.591Z,24.38
2022-09-21T23:41:12.890Z,24.95
2022-09-21T23:43:41.190Z,24.88
2022-09-21T23:46:09.323Z,26.25
2022-09-21T23:48:36.413Z,24.67
2022-09-21T23:51:03.475Z,26.90
2022-09-21T23:53:30.948Z,25.58
2022-09-21T23:55:57.765Z,25.25
2022-09-21T23:58:26.407Z,25.48
